sensor_id;sensor_type;location;lat;lon;timestamp;P1;durP1;ratioP1;P2;durP2;ratioP2
37843;SDS011;63793;57.632;18.292;2023-05-06T00:01:10;2.75;;;1.70;;
37843;SDS011;63793;57.632;18.292;2023-05-06T00:03:40;2.00;;;1.58;;
37843;SDS011;63793;57.632;18.292;2023-05-06T00:06:07;5.03;;;1.88;;
37843;SDS011;63793;57.632;18.292;2023-05-06T00:08:34;3.45;;;2.10;;
37843;SDS011;63793;57.632;18.292;2023-05-06T00:11:01;5.38;;;2.58;;
37843;SDS011;63793;57.632;18.292;2023-05-06T00:13:28;4.35;;;1.70;;
37843;SDS011;63793;57.632;18.292;2023-05-06T00:15:55;4.10;;;3.35;;
37843;SDS011;63793;57.632;18.292;2023-05-06T00:18:22;2.33;;;1.40;;
37843;SDS011;63793;57.632;18.292;2023-05-06T00:20:49;6.70;;;2.85;;
37843;SDS011;63793;57.632;18.292;2023-05-06T00:23:16;5.07;;;2.38;;
37843;SDS011;63793;57.632;18.292;2023-05-06T00:25:43;5.00;;;3.38;;
37843;SDS011;63793;57.632;18.292;2023-05-06T00:28:09;7.03;;;2.20;;
37843;SDS011;63793;57.632;18.292;2023-05-06T00:30:37;4.38;;;2.88;;
37843;SDS011;63793;57.632;18.292;2023-05-06T00:33:04;4.95;;;2.20;;
37843;SDS011;63793;57.632;18.292;2023-05-06T00:35:31;3.22;;;1.88;;
37843;SDS011;63793;57.632;18.292;2023-05-06T00:38:05;4.00;;;2.22;;
37843;SDS011;63793;57.632;18.292;2023-05-06T00:40:34;4.32;;;2.13;;
37843;SDS011;63793;57.632;18.292;2023-05-06T00:43:01;2.97;;;2.78;;
37843;SDS011;63793;57.632;18.292;2023-05-06T00:45:29;3.78;;;2.05;;
37843;SDS011;63793;57.632;18.292;2023-05-06T00:47:56;3.63;;;2.03;;
37843;SDS011;63793;57.632;18.292;2023-05-06T00:50:24;2.10;;;1.90;;
37843;SDS011;63793;57.632;18.292;2023-05-06T00:52:53;6.03;;;2.50;;
37843;SDS011;63793;57.632;18.292;2023-05-06T00:55:23;3.60;;;2.42;;
37843;SDS011;63793;57.632;18.292;2023-05-06T00:57:51;3.53;;;2.35;;
37843;SDS011;63793;57.632;18.292;2023-05-06T01:00:18;3.25;;;2.70;;
37843;SDS011;63793;57.632;18.292;2023-05-06T01:02:46;3.35;;;2.78;;
37843;SDS011;63793;57.632;18.292;2023-05-06T01:05:18;3.65;;;2.58;;
37843;SDS011;63793;57.632;18.292;2023-05-06T01:15:33;6.43;;;2.70;;
37843;SDS011;63793;57.632;18.292;2023-05-06T01:18:09;2.95;;;2.47;;
37843;SDS011;63793;57.632;18.292;2023-05-06T01:20:38;3.95;;;2.28;;
37843;SDS011;63793;57.632;18.292;2023-05-06T01:23:12;3.70;;;2.63;;
37843;SDS011;63793;57.632;18.292;2023-05-06T01:25:39;6.43;;;2.35;;
37843;SDS011;63793;57.632;18.292;2023-05-06T01:28:07;2.83;;;2.28;;
37843;SDS011;63793;57.632;18.292;2023-05-06T01:30:42;4.18;;;2.67;;
37843;SDS011;63793;57.632;18.292;2023-05-06T01:36:03;3.33;;;2.65;;
37843;SDS011;63793;57.632;18.292;2023-05-06T01:38:44;4.10;;;2.83;;
37843;SDS011;63793;57.632;18.292;2023-05-06T01:41:18;3.75;;;2.03;;
37843;SDS011;63793;57.632;18.292;2023-05-06T01:43:47;2.83;;;2.35;;
37843;SDS011;63793;57.632;18.292;2023-05-06T01:46:18;3.08;;;2.33;;
37843;SDS011;63793;57.632;18.292;2023-05-06T01:48:51;3.28;;;2.28;;
37843;SDS011;63793;57.632;18.292;2023-05-06T01:51:21;3.70;;;2.78;;
37843;SDS011;63793;57.632;18.292;2023-05-06T01:53:49;3.28;;;2.72;;
37843;SDS011;63793;57.632;18.292;2023-05-06T01:56:16;2.88;;;2.25;;
37843;SDS011;63793;57.632;18.292;2023-05-06T01:58:43;4.32;;;2.40;;
37843;SDS011;63793;57.632;18.292;2023-05-06T02:01:10;4.20;;;3.08;;
37843;SDS011;63793;57.632;18.292;2023-05-06T02:03:38;4.57;;;2.10;;
37843;SDS011;63793;57.632;18.292;2023-05-06T02:06:05;2.47;;;2.00;;
37843;SDS011;63793;57.632;18.292;2023-05-06T02:08:37;2.42;;;2.03;;
37843;SDS011;63793;57.632;18.292;2023-05-06T02:13:33;3.92;;;2.58;;
37843;SDS011;63793;57.632;18.292;2023-05-06T02:16:00;7.38;;;2.55;;
37843;SDS011;63793;57.632;18.292;2023-05-06T02:18:28;6.45;;;1.95;;
37843;SDS011;63793;57.632;18.292;2023-05-06T02:20:55;2.72;;;2.35;;
37843;SDS011;63793;57.632;18.292;2023-05-06T02:23:22;2.53;;;2.00;;
37843;SDS011;63793;57.632;18.292;2023-05-06T02:25:48;2.75;;;1.80;;
37843;SDS011;63793;57.632;18.292;2023-05-06T02:28:17;3.38;;;2.25;;
37843;SDS011;63793;57.632;18.292;2023-05-06T02:30:44;3.08;;;1.95;;
37843;SDS011;63793;57.632;18.292;2023-05-06T02:33:10;3.28;;;2.17;;
37843;SDS011;63793;57.632;18.292;2023-05-06T02:35:37;5.00;;;2.63;;
37843;SDS011;63793;57.632;18.292;2023-05-06T02:38:04;3.70;;;2.33;;
37843;SDS011;63793;57.632;18.292;2023-05-06T02:40:32;5.28;;;2.45;;
37843;SDS011;63793;57.632;18.292;2023-05-06T02:42:59;5.78;;;2.58;;
37843;SDS011;63793;57.632;18.292;2023-05-06T02:45:26;4.13;;;2.25;;
37843;SDS011;63793;57.632;18.292;2023-05-06T02:47:53;4.57;;;2.95;;
37843;SDS011;63793;57.632;18.292;2023-05-06T02:50:20;3.17;;;2.05;;
37843;SDS011;63793;57.632;18.292;2023-05-06T02:52:47;2.95;;;2.10;;
37843;SDS011;63793;57.632;18.292;2023-05-06T02:55:14;3.10;;;2.35;;
37843;SDS011;63793;57.632;18.292;2023-05-06T02:57:41;5.65;;;2.33;;
37843;SDS011;63793;57.632;18.292;2023-05-06T03:00:08;5.18;;;2.25;;
37843;SDS011;63793;57.632;18.292;2023-05-06T03:02:38;4.88;;;2.65;;
37843;SDS011;63793;57.632;18.292;2023-05-06T03:05:05;5.18;;;2.10;;
37843;SDS011;63793;57.632;18.292;2023-05-06T03:07:34;6.57;;;3.47;;
37843;SDS011;63793;57.632;18.292;2023-05-06T03:10:02;4.72;;;2.63;;
37843;SDS011;63793;57.632;18.292;2023-05-06T03:12:33;5.43;;;2.38;;
37843;SDS011;63793;57.632;18.292;2023-05-06T03:15:00;7.40;;;3.03;;
37843;SDS011;63793;57.632;18.292;2023-05-06T03:17:27;4.13;;;2.40;;
37843;SDS011;63793;57.632;18.292;2023-05-06T03:19:54;4.18;;;2.78;;
37843;SDS011;63793;57.632;18.292;2023-05-06T03:22:21;2.63;;;2.40;;
37843;SDS011;63793;57.632;18.292;2023-05-06T03:24:48;3.38;;;1.98;;
37843;SDS011;63793;57.632;18.292;2023-05-06T03:27:15;5.43;;;2.47;;
37843;SDS011;63793;57.632;18.292;2023-05-06T03:29:45;3.15;;;2.50;;
37843;SDS011;63793;57.632;18.292;2023-05-06T03:32:13;6.53;;;2.72;;
37843;SDS011;63793;57.632;18.292;2023-05-06T03:34:42;4.18;;;2.55;;
37843;SDS011;63793;57.632;18.292;2023-05-06T03:37:14;4.32;;;2.42;;
37843;SDS011;63793;57.632;18.292;2023-05-06T03:39:46;6.18;;;3.35;;
37843;SDS011;63793;57.632;18.292;2023-05-06T03:42:14;6.38;;;2.53;;
37843;SDS011;63793;57.632;18.292;2023-05-06T03:44:42;5.28;;;2.58;;
37843;SDS011;63793;57.632;18.292;2023-05-06T03:47:09;3.05;;;2.22;;
37843;SDS011;63793;57.632;18.292;2023-05-06T03:49:36;3.08;;;2.75;;
37843;SDS011;63793;57.632;18.292;2023-05-06T03:52:04;5.05;;;2.45;;
37843;SDS011;63793;57.632;18.292;2023-05-06T03:54:31;3.45;;;2.45;;
37843;SDS011;63793;57.632;18.292;2023-05-06T03:56:58;4.38;;;2.40;;
37843;SDS011;63793;57.632;18.292;2023-05-06T03:59:25;3.38;;;2.35;;
37843;SDS011;63793;57.632;18.292;2023-05-06T04:01:53;5.07;;;2.30;;
37843;SDS011;63793;57.632;18.292;2023-05-06T04:04:20;3.92;;;2.47;;
37843;SDS011;63793;57.632;18.292;2023-05-06T04:06:47;3.25;;;2.40;;
37843;SDS011;63793;57.632;18.292;2023-05-06T04:09:14;5.78;;;2.63;;
37843;SDS011;63793;57.632;18.292;2023-05-06T04:11:41;4.70;;;2.70;;
37843;SDS011;63793;57.632;18.292;2023-05-06T04:14:10;3.83;;;2.72;;
37843;SDS011;63793;57.632;18.292;2023-05-06T04:16:37;5.90;;;3.00;;
37843;SDS011;63793;57.632;18.292;2023-05-06T04:19:04;6.38;;;2.42;;
37843;SDS011;63793;57.632;18.292;2023-05-06T04:21:34;3.63;;;2.93;;
37843;SDS011;63793;57.632;18.292;2023-05-06T04:24:05;4.28;;;2.55;;
37843;SDS011;63793;57.632;18.292;2023-05-06T04:26:36;5.90;;;2.85;;
37843;SDS011;63793;57.632;18.292;2023-05-06T04:29:03;8.32;;;4.28;;
37843;SDS011;63793;57.632;18.292;2023-05-06T04:31:33;4.80;;;2.42;;
37843;SDS011;63793;57.632;18.292;2023-05-06T04:36:30;3.42;;;2.45;;
37843;SDS011;63793;57.632;18.292;2023-05-06T04:39:26;3.00;;;2.25;;
37843;SDS011;63793;57.632;18.292;2023-05-06T04:41:54;4.70;;;2.65;;
37843;SDS011;63793;57.632;18.292;2023-05-06T04:44:28;4.60;;;2.72;;
37843;SDS011;63793;57.632;18.292;2023-05-06T04:46:56;2.75;;;2.05;;
37843;SDS011;63793;57.632;18.292;2023-05-06T04:49:23;3.30;;;2.10;;
37843;SDS011;63793;57.632;18.292;2023-05-06T04:51:51;3.05;;;2.35;;
37843;SDS011;63793;57.632;18.292;2023-05-06T04:54:17;5.00;;;2.35;;
37843;SDS011;63793;57.632;18.292;2023-05-06T04:56:44;3.75;;;2.40;;
37843;SDS011;63793;57.632;18.292;2023-05-06T04:59:13;2.28;;;1.60;;
37843;SDS011;63793;57.632;18.292;2023-05-06T05:01:42;3.55;;;2.00;;
37843;SDS011;63793;57.632;18.292;2023-05-06T05:04:10;3.55;;;2.33;;
37843;SDS011;63793;57.632;18.292;2023-05-06T05:06:37;2.33;;;1.70;;
37843;SDS011;63793;57.632;18.292;2023-05-06T05:09:04;1.90;;;1.60;;
37843;SDS011;63793;57.632;18.292;2023-05-06T05:11:32;7.07;;;1.55;;
37843;SDS011;63793;57.632;18.292;2023-05-06T05:14:01;2.63;;;2.15;;
37843;SDS011;63793;57.632;18.292;2023-05-06T05:16:29;4.65;;;1.80;;
37843;SDS011;63793;57.632;18.292;2023-05-06T05:18:56;2.20;;;1.52;;
37843;SDS011;63793;57.632;18.292;2023-05-06T05:21:27;5.32;;;2.17;;
37843;SDS011;63793;57.632;18.292;2023-05-06T05:23:55;1.77;;;1.45;;
37843;SDS011;63793;57.632;18.292;2023-05-06T05:26:22;1.60;;;1.48;;
37843;SDS011;63793;57.632;18.292;2023-05-06T05:28:51;2.50;;;1.83;;
37843;SDS011;63793;57.632;18.292;2023-05-06T05:31:18;4.65;;;1.35;;
37843;SDS011;63793;57.632;18.292;2023-05-06T05:33:45;1.60;;;1.38;;
37843;SDS011;63793;57.632;18.292;2023-05-06T05:36:15;3.38;;;1.33;;
37843;SDS011;63793;57.632;18.292;2023-05-06T05:38:44;2.80;;;1.35;;
37843;SDS011;63793;57.632;18.292;2023-05-06T05:41:13;1.33;;;1.00;;
37843;SDS011;63793;57.632;18.292;2023-05-06T05:43:43;1.15;;;0.90;;
37843;SDS011;63793;57.632;18.292;2023-05-06T05:46:10;3.13;;;1.58;;
37843;SDS011;63793;57.632;18.292;2023-05-06T05:48:38;2.33;;;1.30;;
37843;SDS011;63793;57.632;18.292;2023-05-06T05:51:05;1.17;;;1.08;;
37843;SDS011;63793;57.632;18.292;2023-05-06T05:53:32;0.95;;;0.63;;
37843;SDS011;63793;57.632;18.292;2023-05-06T05:55:59;3.30;;;1.20;;
37843;SDS011;63793;57.632;18.292;2023-05-06T05:58:27;2.00;;;1.73;;
37843;SDS011;63793;57.632;18.292;2023-05-06T06:00:56;7.05;;;1.63;;
37843;SDS011;63793;57.632;18.292;2023-05-06T06:03:23;1.83;;;1.13;;
37843;SDS011;63793;57.632;18.292;2023-05-06T06:05:51;2.75;;;0.93;;
37843;SDS011;63793;57.632;18.292;2023-05-06T06:08:21;2.33;;;1.45;;
37843;SDS011;63793;57.632;18.292;2023-05-06T06:10:50;1.27;;;1.13;;
37843;SDS011;63793;57.632;18.292;2023-05-06T06:13:21;1.25;;;1.10;;
37843;SDS011;63793;57.632;18.292;2023-05-06T06:15:50;2.80;;;1.25;;
37843;SDS011;63793;57.632;18.292;2023-05-06T06:18:17;1.45;;;1.30;;
37843;SDS011;63793;57.632;18.292;2023-05-06T06:20:44;2.72;;;1.25;;
37843;SDS011;63793;57.632;18.292;2023-05-06T06:23:12;3.92;;;1.30;;
37843;SDS011;63793;57.632;18.292;2023-05-06T06:25:39;0.93;;;0.80;;
37843;SDS011;63793;57.632;18.292;2023-05-06T06:28:06;2.45;;;1.27;;
37843;SDS011;63793;57.632;18.292;2023-05-06T06:30:33;2.58;;;1.17;;
37843;SDS011;63793;57.632;18.292;2023-05-06T06:32:59;4.65;;;1.95;;
37843;SDS011;63793;57.632;18.292;2023-05-06T06:35:27;3.58;;;1.40;;
37843;SDS011;63793;57.632;18.292;2023-05-06T06:37:54;1.38;;;1.27;;
37843;SDS011;63793;57.632;18.292;2023-05-06T06:40:21;2.38;;;1.60;;
37843;SDS011;63793;57.632;18.292;2023-05-06T06:42:48;2.50;;;1.05;;
37843;SDS011;63793;57.632;18.292;2023-05-06T06:45:38;2.92;;;1.33;;
37843;SDS011;63793;57.632;18.292;2023-05-06T06:48:05;1.48;;;1.38;;
37843;SDS011;63793;57.632;18.292;2023-05-06T06:50:32;1.15;;;0.80;;
37843;SDS011;63793;57.632;18.292;2023-05-06T06:52:58;1.65;;;1.40;;
37843;SDS011;63793;57.632;18.292;2023-05-06T06:55:25;1.38;;;1.25;;
37843;SDS011;63793;57.632;18.292;2023-05-06T06:57:52;1.65;;;1.20;;
37843;SDS011;63793;57.632;18.292;2023-05-06T07:00:19;1.33;;;1.17;;
37843;SDS011;63793;57.632;18.292;2023-05-06T07:02:46;4.88;;;1.52;;
37843;SDS011;63793;57.632;18.292;2023-05-06T07:05:13;2.25;;;0.93;;
37843;SDS011;63793;57.632;18.292;2023-05-06T07:07:41;2.13;;;1.23;;
37843;SDS011;63793;57.632;18.292;2023-05-06T07:10:07;1.73;;;1.05;;
37843;SDS011;63793;57.632;18.292;2023-05-06T07:12:35;4.90;;;2.55;;
37843;SDS011;63793;57.632;18.292;2023-05-06T07:15:02;1.52;;;1.00;;
37843;SDS011;63793;57.632;18.292;2023-05-06T07:17:32;3.00;;;0.95;;
37843;SDS011;63793;57.632;18.292;2023-05-06T07:19:59;1.30;;;1.10;;
37843;SDS011;63793;57.632;18.292;2023-05-06T07:22:27;2.25;;;1.38;;
37843;SDS011;63793;57.632;18.292;2023-05-06T07:24:54;1.65;;;1.45;;
37843;SDS011;63793;57.632;18.292;2023-05-06T07:27:21;1.58;;;1.48;;
37843;SDS011;63793;57.632;18.292;2023-05-06T07:29:49;1.60;;;1.00;;
37843;SDS011;63793;57.632;18.292;2023-05-06T07:32:16;1.75;;;1.60;;
37843;SDS011;63793;57.632;18.292;2023-05-06T07:34:43;1.63;;;1.33;;
37843;SDS011;63793;57.632;18.292;2023-05-06T07:37:10;1.38;;;1.27;;
37843;SDS011;63793;57.632;18.292;2023-05-06T07:39:36;3.30;;;1.30;;
37843;SDS011;63793;57.632;18.292;2023-05-06T07:42:03;5.63;;;2.42;;
37843;SDS011;63793;57.632;18.292;2023-05-06T07:44:30;0.82;;;0.82;;
37843;SDS011;63793;57.632;18.292;2023-05-06T07:46:57;2.55;;;1.45;;
37843;SDS011;63793;57.632;18.292;2023-05-06T07:49:24;2.10;;;1.90;;
37843;SDS011;63793;57.632;18.292;2023-05-06T07:51:54;1.77;;;1.45;;
37843;SDS011;63793;57.632;18.292;2023-05-06T07:54:20;3.33;;;1.23;;
37843;SDS011;63793;57.632;18.292;2023-05-06T07:56:47;1.92;;;1.05;;
37843;SDS011;63793;57.632;18.292;2023-05-06T07:59:14;5.03;;;1.70;;
37843;SDS011;63793;57.632;18.292;2023-05-06T08:01:41;5.53;;;1.67;;
37843;SDS011;63793;57.632;18.292;2023-05-06T08:04:08;2.92;;;1.60;;
37843;SDS011;63793;57.632;18.292;2023-05-06T08:06:35;2.30;;;1.30;;
37843;SDS011;63793;57.632;18.292;2023-05-06T08:09:01;1.92;;;1.25;;
37843;SDS011;63793;57.632;18.292;2023-05-06T08:11:29;1.63;;;1.30;;
37843;SDS011;63793;57.632;18.292;2023-05-06T08:13:55;3.10;;;1.20;;
37843;SDS011;63793;57.632;18.292;2023-05-06T08:16:22;1.30;;;0.90;;
37843;SDS011;63793;57.632;18.292;2023-05-06T08:18:50;4.75;;;1.77;;
37843;SDS011;63793;57.632;18.292;2023-05-06T08:21:17;1.60;;;1.48;;
37843;SDS011;63793;57.632;18.292;2023-05-06T08:23:44;1.30;;;1.20;;
37843;SDS011;63793;57.632;18.292;2023-05-06T08:26:11;1.35;;;1.10;;
37843;SDS011;63793;57.632;18.292;2023-05-06T08:28:38;2.78;;;1.42;;
37843;SDS011;63793;57.632;18.292;2023-05-06T08:31:05;5.40;;;1.90;;
37843;SDS011;63793;57.632;18.292;2023-05-06T08:33:32;1.70;;;1.60;;
37843;SDS011;63793;57.632;18.292;2023-05-06T08:35:59;1.00;;;0.90;;
37843;SDS011;63793;57.632;18.292;2023-05-06T08:38:26;1.98;;;1.33;;
37843;SDS011;63793;57.632;18.292;2023-05-06T08:40:52;6.28;;;1.85;;
37843;SDS011;63793;57.632;18.292;2023-05-06T08:43:20;2.13;;;1.38;;
37843;SDS011;63793;57.632;18.292;2023-05-06T08:45:49;1.73;;;1.27;;
37843;SDS011;63793;57.632;18.292;2023-05-06T08:48:16;3.70;;;1.50;;
37843;SDS011;63793;57.632;18.292;2023-05-06T08:50:43;2.60;;;1.08;;
37843;SDS011;63793;57.632;18.292;2023-05-06T08:53:11;1.65;;;0.88;;
37843;SDS011;63793;57.632;18.292;2023-05-06T08:55:42;3.70;;;1.17;;
37843;SDS011;63793;57.632;18.292;2023-05-06T09:00:38;2.33;;;0.82;;
37843;SDS011;63793;57.632;18.292;2023-05-06T09:03:05;1.73;;;1.23;;
37843;SDS011;63793;57.632;18.292;2023-05-06T09:05:32;1.75;;;1.63;;
37843;SDS011;63793;57.632;18.292;2023-05-06T09:07:59;2.30;;;0.98;;
37843;SDS011;63793;57.632;18.292;2023-05-06T09:10:30;1.48;;;1.38;;
37843;SDS011;63793;57.632;18.292;2023-05-06T09:12:58;2.08;;;1.42;;
37843;SDS011;63793;57.632;18.292;2023-05-06T09:15:25;2.92;;;1.17;;
37843;SDS011;63793;57.632;18.292;2023-05-06T09:17:53;1.70;;;1.20;;
37843;SDS011;63793;57.632;18.292;2023-05-06T09:20:20;3.15;;;1.42;;
37843;SDS011;63793;57.632;18.292;2023-05-06T09:22:47;1.75;;;1.40;;
37843;SDS011;63793;57.632;18.292;2023-05-06T09:25:14;2.47;;;1.15;;
37843;SDS011;63793;57.632;18.292;2023-05-06T09:27:41;2.35;;;1.40;;
37843;SDS011;63793;57.632;18.292;2023-05-06T09:30:09;1.23;;;1.13;;
37843;SDS011;63793;57.632;18.292;2023-05-06T09:32:37;1.73;;;1.33;;
37843;SDS011;63793;57.632;18.292;2023-05-06T09:35:06;5.80;;;2.38;;
37843;SDS011;63793;57.632;18.292;2023-05-06T09:37:35;3.55;;;1.00;;
37843;SDS011;63793;57.632;18.292;2023-05-06T09:40:02;3.00;;;1.15;;
37843;SDS011;63793;57.632;18.292;2023-05-06T09:42:29;1.00;;;0.90;;
37843;SDS011;63793;57.632;18.292;2023-05-06T09:44:57;3.53;;;1.55;;
37843;SDS011;63793;57.632;18.292;2023-05-06T09:47:31;2.47;;;1.17;;
37843;SDS011;63793;57.632;18.292;2023-05-06T09:50:00;1.83;;;1.42;;
37843;SDS011;63793;57.632;18.292;2023-05-06T09:52:28;2.45;;;0.80;;
37843;SDS011;63793;57.632;18.292;2023-05-06T09:54:56;2.22;;;1.75;;
37843;SDS011;63793;57.632;18.292;2023-05-06T09:57:23;1.27;;;1.17;;
37843;SDS011;63793;57.632;18.292;2023-05-06T09:59:52;1.48;;;1.30;;
37843;SDS011;63793;57.632;18.292;2023-05-06T10:02:21;1.30;;;1.20;;
37843;SDS011;63793;57.632;18.292;2023-05-06T10:04:49;1.10;;;0.80;;
37843;SDS011;63793;57.632;18.292;2023-05-06T10:07:18;2.60;;;1.55;;
37843;SDS011;63793;57.632;18.292;2023-05-06T10:09:48;1.33;;;1.23;;
37843;SDS011;63793;57.632;18.292;2023-05-06T10:12:18;3.65;;;1.40;;
37843;SDS011;63793;57.632;18.292;2023-05-06T10:14:45;2.50;;;1.55;;
37843;SDS011;63793;57.632;18.292;2023-05-06T10:17:12;1.90;;;1.38;;
37843;SDS011;63793;57.632;18.292;2023-05-06T10:19:42;1.30;;;1.20;;
37843;SDS011;63793;57.632;18.292;2023-05-06T10:22:14;3.08;;;1.50;;
37843;SDS011;63793;57.632;18.292;2023-05-06T10:25:22;2.50;;;1.25;;
37843;SDS011;63793;57.632;18.292;2023-05-06T10:27:54;2.10;;;1.05;;
37843;SDS011;63793;57.632;18.292;2023-05-06T10:30:21;1.42;;;1.00;;
37843;SDS011;63793;57.632;18.292;2023-05-06T10:32:49;7.88;;;1.50;;
37843;SDS011;63793;57.632;18.292;2023-05-06T10:35:26;5.75;;;1.13;;
37843;SDS011;63793;57.632;18.292;2023-05-06T10:38:08;4.60;;;1.38;;
37843;SDS011;63793;57.632;18.292;2023-05-06T10:40:39;1.35;;;1.05;;
37843;SDS011;63793;57.632;18.292;2023-05-06T10:43:22;4.70;;;1.30;;
37843;SDS011;63793;57.632;18.292;2023-05-06T10:51:36;0.85;;;0.77;;
37843;SDS011;63793;57.632;18.292;2023-05-06T10:54:07;1.38;;;1.00;;
37843;SDS011;63793;57.632;18.292;2023-05-06T10:56:35;4.57;;;1.15;;
37843;SDS011;63793;57.632;18.292;2023-05-06T11:01:37;2.13;;;0.82;;
37843;SDS011;63793;57.632;18.292;2023-05-06T11:04:06;2.13;;;1.85;;
37843;SDS011;63793;57.632;18.292;2023-05-06T11:09:16;1.70;;;1.25;;
37843;SDS011;63793;57.632;18.292;2023-05-06T11:14:33;2.20;;;1.20;;
37843;SDS011;63793;57.632;18.292;2023-05-06T11:19:36;1.10;;;1.00;;
37843;SDS011;63793;57.632;18.292;2023-05-06T11:22:05;1.17;;;1.08;;
37843;SDS011;63793;57.632;18.292;2023-05-06T11:27:08;2.63;;;1.45;;
37843;SDS011;63793;57.632;18.292;2023-05-06T11:29:35;3.42;;;0.80;;
37843;SDS011;63793;57.632;18.292;2023-05-06T11:32:02;3.17;;;0.93;;
37843;SDS011;63793;57.632;18.292;2023-05-06T11:34:31;2.72;;;1.08;;
37843;SDS011;63793;57.632;18.292;2023-05-06T11:37:01;1.67;;;1.20;;
37843;SDS011;63793;57.632;18.292;2023-05-06T11:39:31;4.97;;;0.90;;
37843;SDS011;63793;57.632;18.292;2023-05-06T11:42:06;1.45;;;1.35;;
37843;SDS011;63793;57.632;18.292;2023-05-06T11:44:37;1.75;;;1.05;;
37843;SDS011;63793;57.632;18.292;2023-05-06T11:47:05;1.13;;;0.90;;
37843;SDS011;63793;57.632;18.292;2023-05-06T11:52:06;0.95;;;0.68;;
37843;SDS011;63793;57.632;18.292;2023-05-06T11:54:38;3.22;;;1.30;;
37843;SDS011;63793;57.632;18.292;2023-05-06T11:57:06;10.65;;;1.25;;
37843;SDS011;63793;57.632;18.292;2023-05-06T11:59:37;2.88;;;1.30;;
37843;SDS011;63793;57.632;18.292;2023-05-06T12:02:06;2.58;;;1.05;;
37843;SDS011;63793;57.632;18.292;2023-05-06T12:04:40;1.48;;;1.10;;
37843;SDS011;63793;57.632;18.292;2023-05-06T12:07:13;1.70;;;0.88;;
37843;SDS011;63793;57.632;18.292;2023-05-06T12:09:45;0.95;;;0.90;;
37843;SDS011;63793;57.632;18.292;2023-05-06T12:12:14;0.77;;;0.77;;
37843;SDS011;63793;57.632;18.292;2023-05-06T12:14:43;2.90;;;1.52;;
37843;SDS011;63793;57.632;18.292;2023-05-06T12:17:11;1.20;;;0.85;;
37843;SDS011;63793;57.632;18.292;2023-05-06T12:19:38;2.35;;;0.90;;
37843;SDS011;63793;57.632;18.292;2023-05-06T12:22:15;2.53;;;1.00;;
37843;SDS011;63793;57.632;18.292;2023-05-06T12:24:46;2.30;;;1.38;;
37843;SDS011;63793;57.632;18.292;2023-05-06T12:27:26;3.30;;;1.25;;
37843;SDS011;63793;57.632;18.292;2023-05-06T12:29:54;1.25;;;1.15;;
37843;SDS011;63793;57.632;18.292;2023-05-06T12:32:21;1.10;;;0.95;;
37843;SDS011;63793;57.632;18.292;2023-05-06T12:34:48;1.50;;;1.33;;
37843;SDS011;63793;57.632;18.292;2023-05-06T12:37:28;2.20;;;1.00;;
37843;SDS011;63793;57.632;18.292;2023-05-06T12:39:55;1.23;;;0.98;;
37843;SDS011;63793;57.632;18.292;2023-05-06T12:42:24;2.53;;;1.33;;
37843;SDS011;63793;57.632;18.292;2023-05-06T12:44:51;1.00;;;0.90;;
37843;SDS011;63793;57.632;18.292;2023-05-06T12:47:19;5.80;;;1.42;;
37843;SDS011;63793;57.632;18.292;2023-05-06T12:52:17;1.80;;;1.20;;
37843;SDS011;63793;57.632;18.292;2023-05-06T12:54:45;1.90;;;0.85;;
37843;SDS011;63793;57.632;18.292;2023-05-06T12:57:12;1.05;;;0.95;;
37843;SDS011;63793;57.632;18.292;2023-05-06T12:59:41;1.65;;;0.80;;
37843;SDS011;63793;57.632;18.292;2023-05-06T13:02:09;1.80;;;0.93;;
37843;SDS011;63793;57.632;18.292;2023-05-06T13:04:36;1.85;;;1.30;;
37843;SDS011;63793;57.632;18.292;2023-05-06T13:07:03;4.43;;;1.73;;
37843;SDS011;63793;57.632;18.292;2023-05-06T13:09:31;2.28;;;1.55;;
37843;SDS011;63793;57.632;18.292;2023-05-06T13:11:58;1.20;;;1.10;;
37843;SDS011;63793;57.632;18.292;2023-05-06T13:14:25;2.95;;;2.00;;
37843;SDS011;63793;57.632;18.292;2023-05-06T13:16:52;2.90;;;1.13;;
37843;SDS011;63793;57.632;18.292;2023-05-06T13:19:19;1.30;;;0.70;;
37843;SDS011;63793;57.632;18.292;2023-05-06T13:21:57;0.77;;;0.77;;
37843;SDS011;63793;57.632;18.292;2023-05-06T13:24:25;2.90;;;1.20;;
37843;SDS011;63793;57.632;18.292;2023-05-06T13:26:52;1.27;;;1.15;;
37843;SDS011;63793;57.632;18.292;2023-05-06T13:29:21;2.85;;;1.02;;
37843;SDS011;63793;57.632;18.292;2023-05-06T13:31:49;0.75;;;0.75;;
37843;SDS011;63793;57.632;18.292;2023-05-06T13:34:17;5.82;;;1.92;;
37843;SDS011;63793;57.632;18.292;2023-05-06T13:36:44;1.42;;;1.25;;
37843;SDS011;63793;57.632;18.292;2023-05-06T13:39:12;0.98;;;0.70;;
37843;SDS011;63793;57.632;18.292;2023-05-06T13:41:39;1.88;;;0.75;;
37843;SDS011;63793;57.632;18.292;2023-05-06T13:44:06;4.22;;;1.05;;
37843;SDS011;63793;57.632;18.292;2023-05-06T13:46:33;4.05;;;1.50;;
37843;SDS011;63793;57.632;18.292;2023-05-06T13:49:00;1.60;;;1.50;;
37843;SDS011;63793;57.632;18.292;2023-05-06T13:51:26;1.38;;;1.17;;
37843;SDS011;63793;57.632;18.292;2023-05-06T13:53:56;1.92;;;0.80;;
37843;SDS011;63793;57.632;18.292;2023-05-06T13:56:23;1.55;;;1.40;;
37843;SDS011;63793;57.632;18.292;2023-05-06T13:58:49;2.05;;;1.30;;
37843;SDS011;63793;57.632;18.292;2023-05-06T14:01:19;0.98;;;0.98;;
37843;SDS011;63793;57.632;18.292;2023-05-06T14:03:47;2.15;;;1.10;;
37843;SDS011;63793;57.632;18.292;2023-05-06T14:06:14;2.38;;;0.60;;
37843;SDS011;63793;57.632;18.292;2023-05-06T14:08:41;2.17;;;0.90;;
37843;SDS011;63793;57.632;18.292;2023-05-06T14:11:07;3.50;;;1.58;;
37843;SDS011;63793;57.632;18.292;2023-05-06T14:13:38;0.90;;;0.80;;
37843;SDS011;63793;57.632;18.292;2023-05-06T14:16:05;2.25;;;1.02;;
37843;SDS011;63793;57.632;18.292;2023-05-06T14:18:32;1.40;;;1.02;;
37843;SDS011;63793;57.632;18.292;2023-05-06T14:20:59;2.65;;;1.67;;
37843;SDS011;63793;57.632;18.292;2023-05-06T14:23:26;2.13;;;1.10;;
37843;SDS011;63793;57.632;18.292;2023-05-06T14:25:53;1.95;;;1.50;;
37843;SDS011;63793;57.632;18.292;2023-05-06T14:28:20;1.60;;;1.30;;
37843;SDS011;63793;57.632;18.292;2023-05-06T14:30:48;1.10;;;1.00;;
37843;SDS011;63793;57.632;18.292;2023-05-06T14:33:16;4.60;;;1.17;;
37843;SDS011;63793;57.632;18.292;2023-05-06T14:35:43;1.10;;;0.77;;
37843;SDS011;63793;57.632;18.292;2023-05-06T14:38:11;1.20;;;1.10;;
37843;SDS011;63793;57.632;18.292;2023-05-06T14:40:38;6.05;;;1.50;;
37843;SDS011;63793;57.632;18.292;2023-05-06T14:43:07;1.15;;;0.68;;
37843;SDS011;63793;57.632;18.292;2023-05-06T14:45:34;1.33;;;1.23;;
37843;SDS011;63793;57.632;18.292;2023-05-06T14:48:01;1.00;;;0.90;;
37843;SDS011;63793;57.632;18.292;2023-05-06T14:50:29;1.35;;;0.90;;
37843;SDS011;63793;57.632;18.292;2023-05-06T14:52:56;2.72;;;1.42;;
37843;SDS011;63793;57.632;18.292;2023-05-06T14:55:23;1.60;;;1.23;;
37843;SDS011;63793;57.632;18.292;2023-05-06T14:57:51;2.13;;;1.98;;
37843;SDS011;63793;57.632;18.292;2023-05-06T15:00:18;1.77;;;1.00;;
37843;SDS011;63793;57.632;18.292;2023-05-06T15:02:45;2.03;;;1.10;;
37843;SDS011;63793;57.632;18.292;2023-05-06T15:05:12;3.50;;;1.08;;
37843;SDS011;63793;57.632;18.292;2023-05-06T15:07:40;2.25;;;1.02;;
37843;SDS011;63793;57.632;18.292;2023-05-06T15:10:07;1.80;;;1.48;;
37843;SDS011;63793;57.632;18.292;2023-05-06T15:12:34;2.45;;;1.63;;
37843;SDS011;63793;57.632;18.292;2023-05-06T15:15:03;2.17;;;1.30;;
37843;SDS011;63793;57.632;18.292;2023-05-06T15:17:30;2.58;;;0.93;;
37843;SDS011;63793;57.632;18.292;2023-05-06T15:19:58;1.38;;;1.15;;
37843;SDS011;63793;57.632;18.292;2023-05-06T15:22:25;1.23;;;0.95;;